sensor_id;sensor_type;location;lat;lon;timestamp;P1;durP1;ratioP1;P2;durP2;ratioP2
3791;SDS011;1911;53.768;11.474;2022-12-07T00:01:13;13.70;;;6.55;;
3791;SDS011;1911;53.768;11.474;2022-12-07T00:03:42;14.45;;;8.02;;
3791;SDS011;1911;53.768;11.474;2022-12-07T00:06:09;15.43;;;6.97;;
3791;SDS011;1911;53.768;11.474;2022-12-07T00:08:37;18.35;;;8.55;;
3791;SDS011;1911;53.768;11.474;2022-12-07T00:13:30;15.43;;;7.43;;
3791;SDS011;1911;53.768;11.474;2022-12-07T00:16:04;15.95;;;7.55;;
3791;SDS011;1911;53.768;11.474;2022-12-07T00:18:35;20.85;;;9.75;;
3791;SDS011;1911;53.768;11.474;2022-12-07T00:21:06;19.83;;;8.80;;
3791;SDS011;1911;53.768;11.474;2022-12-07T00:23:34;16.40;;;8.15;;
3791;SDS011;1911;53.768;11.474;2022-12-07T00:26:04;14.40;;;7.70;;
3791;SDS011;1911;53.768;11.474;2022-12-07T00:28:37;19.30;;;9.38;;
3791;SDS011;1911;53.768;11.474;2022-12-07T00:31:08;19.80;;;9.02;;
3791;SDS011;1911;53.768;11.474;2022-12-07T00:33:35;18.83;;;9.52;;
3791;SDS011;1911;53.768;11.474;2022-12-07T00:36:02;20.10;;;9.75;;
3791;SDS011;1911;53.768;11.474;2022-12-07T00:38:31;18.90;;;8.75;;
3791;SDS011;1911;53.768;11.474;2022-12-07T00:40:59;13.98;;;8.65;;
3791;SDS011;1911;53.768;11.474;2022-12-07T00:43:26;20.17;;;10.45;;
3791;SDS011;1911;53.768;11.474;2022-12-07T00:45:52;18.40;;;9.57;;
3791;SDS011;1911;53.768;11.474;2022-12-07T00:48:18;20.42;;;8.50;;
3791;SDS011;1911;53.768;11.474;2022-12-07T00:50:44;21.40;;;9.95;;
3791;SDS011;1911;53.768;11.474;2022-12-07T00:53:10;21.30;;;9.33;;
3791;SDS011;1911;53.768;11.474;2022-12-07T00:55:36;19.30;;;9.40;;
3791;SDS011;1911;53.768;11.474;2022-12-07T00:58:02;18.93;;;9.30;;
3791;SDS011;1911;53.768;11.474;2022-12-07T01:00:28;20.20;;;10.50;;
3791;SDS011;1911;53.768;11.474;2022-12-07T01:02:54;18.95;;;11.10;;
3791;SDS011;1911;53.768;11.474;2022-12-07T01:05:19;19.77;;;10.43;;
3791;SDS011;1911;53.768;11.474;2022-12-07T01:07:45;17.63;;;9.80;;
3791;SDS011;1911;53.768;11.474;2022-12-07T01:10:11;20.48;;;10.63;;
3791;SDS011;1911;53.768;11.474;2022-12-07T01:12:37;25.13;;;10.93;;
3791;SDS011;1911;53.768;11.474;2022-12-07T01:15:04;20.70;;;10.30;;
3791;SDS011;1911;53.768;11.474;2022-12-07T01:17:30;23.83;;;10.75;;
3791;SDS011;1911;53.768;11.474;2022-12-07T01:19:56;22.33;;;11.47;;
3791;SDS011;1911;53.768;11.474;2022-12-07T01:22:21;20.33;;;11.60;;
3791;SDS011;1911;53.768;11.474;2022-12-07T01:24:47;17.63;;;10.67;;
3791;SDS011;1911;53.768;11.474;2022-12-07T01:27:13;22.27;;;10.83;;
3791;SDS011;1911;53.768;11.474;2022-12-07T01:29:38;25.70;;;11.73;;
3791;SDS011;1911;53.768;11.474;2022-12-07T01:32:04;28.90;;;11.93;;
3791;SDS011;1911;53.768;11.474;2022-12-07T01:34:29;23.10;;;12.60;;
3791;SDS011;1911;53.768;11.474;2022-12-07T01:36:55;31.20;;;14.80;;
3791;SDS011;1911;53.768;11.474;2022-12-07T01:39:21;32.60;;;13.90;;
3791;SDS011;1911;53.768;11.474;2022-12-07T01:41:47;27.80;;;12.57;;
3791;SDS011;1911;53.768;11.474;2022-12-07T01:49:22;27.25;;;13.88;;
3791;SDS011;1911;53.768;11.474;2022-12-07T01:52:43;24.27;;;12.85;;
3791;SDS011;1911;53.768;11.474;2022-12-07T01:54:53;29.15;;;13.63;;
3791;SDS011;1911;53.768;11.474;2022-12-07T01:57:22;30.55;;;12.55;;
3791;SDS011;1911;53.768;11.474;2022-12-07T01:59:48;28.00;;;12.70;;
3791;SDS011;1911;53.768;11.474;2022-12-07T02:02:20;21.52;;;10.52;;
3791;SDS011;1911;53.768;11.474;2022-12-07T02:04:53;20.33;;;9.63;;
3791;SDS011;1911;53.768;11.474;2022-12-07T02:07:22;21.20;;;11.90;;
3791;SDS011;1911;53.768;11.474;2022-12-07T02:09:48;21.83;;;11.60;;
3791;SDS011;1911;53.768;11.474;2022-12-07T02:12:14;21.90;;;11.37;;
3791;SDS011;1911;53.768;11.474;2022-12-07T02:14:52;28.17;;;12.80;;
3791;SDS011;1911;53.768;11.474;2022-12-07T02:17:20;25.63;;;13.02;;
3791;SDS011;1911;53.768;11.474;2022-12-07T02:19:55;25.67;;;12.45;;
3791;SDS011;1911;53.768;11.474;2022-12-07T02:22:52;30.42;;;14.05;;
3791;SDS011;1911;53.768;11.474;2022-12-07T02:25:31;24.33;;;13.10;;
3791;SDS011;1911;53.768;11.474;2022-12-07T02:30:48;29.42;;;13.20;;
3791;SDS011;1911;53.768;11.474;2022-12-07T02:33:24;25.90;;;12.40;;
3791;SDS011;1911;53.768;11.474;2022-12-07T02:40:53;26.10;;;12.00;;
3791;SDS011;1911;53.768;11.474;2022-12-07T02:43:26;28.90;;;10.57;;
3791;SDS011;1911;53.768;11.474;2022-12-07T02:45:56;26.00;;;10.17;;
3791;SDS011;1911;53.768;11.474;2022-12-07T02:48:26;26.02;;;13.35;;
3791;SDS011;1911;53.768;11.474;2022-12-07T02:50:53;22.20;;;12.10;;
3791;SDS011;1911;53.768;11.474;2022-12-07T02:53:29;27.25;;;11.57;;
3791;SDS011;1911;53.768;11.474;2022-12-07T02:55:59;18.15;;;10.75;;
3791;SDS011;1911;53.768;11.474;2022-12-07T03:04:46;17.23;;;10.00;;
3791;SDS011;1911;53.768;11.474;2022-12-07T03:13:06;16.80;;;8.70;;
3791;SDS011;1911;53.768;11.474;2022-12-07T03:18:10;19.25;;;9.80;;
3791;SDS011;1911;53.768;11.474;2022-12-07T03:20:38;22.38;;;12.05;;
3791;SDS011;1911;53.768;11.474;2022-12-07T03:23:06;22.83;;;10.50;;
3791;SDS011;1911;53.768;11.474;2022-12-07T03:25:38;18.88;;;11.48;;
3791;SDS011;1911;53.768;11.474;2022-12-07T03:28:10;24.65;;;11.73;;
3791;SDS011;1911;53.768;11.474;2022-12-07T03:30:45;12.30;;;6.10;;
3791;SDS011;1911;53.768;11.474;2022-12-07T03:33:17;12.13;;;6.28;;
3791;SDS011;1911;53.768;11.474;2022-12-07T03:35:49;8.52;;;4.95;;
3791;SDS011;1911;53.768;11.474;2022-12-07T03:38:27;10.73;;;6.20;;
3791;SDS011;1911;53.768;11.474;2022-12-07T03:41:12;15.67;;;6.53;;
3791;SDS011;1911;53.768;11.474;2022-12-07T03:43:43;12.20;;;5.40;;
3791;SDS011;1911;53.768;11.474;2022-12-07T03:49:24;9.77;;;5.60;;
3791;SDS011;1911;53.768;11.474;2022-12-07T03:52:01;8.85;;;4.70;;
3791;SDS011;1911;53.768;11.474;2022-12-07T03:54:39;10.48;;;6.13;;
3791;SDS011;1911;53.768;11.474;2022-12-07T03:57:06;12.77;;;5.75;;
3791;SDS011;1911;53.768;11.474;2022-12-07T03:59:32;7.85;;;4.25;;
3791;SDS011;1911;53.768;11.474;2022-12-07T04:02:03;16.95;;;6.90;;
3791;SDS011;1911;53.768;11.474;2022-12-07T04:04:30;8.25;;;4.82;;
3791;SDS011;1911;53.768;11.474;2022-12-07T04:06:55;13.03;;;7.50;;
3791;SDS011;1911;53.768;11.474;2022-12-07T04:09:21;13.07;;;7.37;;
3791;SDS011;1911;53.768;11.474;2022-12-07T04:11:47;12.90;;;6.80;;
3791;SDS011;1911;53.768;11.474;2022-12-07T04:14:12;8.20;;;4.50;;
3791;SDS011;1911;53.768;11.474;2022-12-07T04:16:45;6.43;;;3.70;;
3791;SDS011;1911;53.768;11.474;2022-12-07T04:19:12;5.65;;;3.45;;
3791;SDS011;1911;53.768;11.474;2022-12-07T04:21:38;7.68;;;3.63;;
3791;SDS011;1911;53.768;11.474;2022-12-07T04:24:04;12.13;;;4.30;;
3791;SDS011;1911;53.768;11.474;2022-12-07T04:26:30;11.60;;;5.47;;
3791;SDS011;1911;53.768;11.474;2022-12-07T04:28:55;8.03;;;4.13;;
3791;SDS011;1911;53.768;11.474;2022-12-07T04:31:21;9.53;;;4.40;;
3791;SDS011;1911;53.768;11.474;2022-12-07T04:33:46;9.73;;;6.03;;
3791;SDS011;1911;53.768;11.474;2022-12-07T04:36:12;12.00;;;6.07;;
3791;SDS011;1911;53.768;11.474;2022-12-07T04:38:38;9.30;;;4.17;;
3791;SDS011;1911;53.768;11.474;2022-12-07T04:41:06;8.13;;;3.73;;
3791;SDS011;1911;53.768;11.474;2022-12-07T04:43:33;13.40;;;5.57;;
3791;SDS011;1911;53.768;11.474;2022-12-07T04:45:59;10.15;;;4.30;;
3791;SDS011;1911;53.768;11.474;2022-12-07T04:48:25;15.27;;;6.63;;
3791;SDS011;1911;53.768;11.474;2022-12-07T04:50:51;12.23;;;5.43;;
3791;SDS011;1911;53.768;11.474;2022-12-07T04:53:16;8.73;;;4.80;;
3791;SDS011;1911;53.768;11.474;2022-12-07T04:55:42;8.00;;;5.07;;
3791;SDS011;1911;53.768;11.474;2022-12-07T04:58:08;12.15;;;5.88;;
3791;SDS011;1911;53.768;11.474;2022-12-07T05:00:33;11.20;;;4.67;;
3791;SDS011;1911;53.768;11.474;2022-12-07T05:02:59;15.63;;;7.37;;
3791;SDS011;1911;53.768;11.474;2022-12-07T05:05:24;12.60;;;6.23;;
3791;SDS011;1911;53.768;11.474;2022-12-07T05:07:50;9.50;;;6.10;;
3791;SDS011;1911;53.768;11.474;2022-12-07T05:10:16;10.97;;;5.23;;
3791;SDS011;1911;53.768;11.474;2022-12-07T05:12:42;7.57;;;4.60;;
3791;SDS011;1911;53.768;11.474;2022-12-07T05:15:07;6.63;;;3.73;;
3791;SDS011;1911;53.768;11.474;2022-12-07T05:17:33;16.73;;;7.20;;
3791;SDS011;1911;53.768;11.474;2022-12-07T05:19:59;6.40;;;3.30;;
3791;SDS011;1911;53.768;11.474;2022-12-07T05:22:24;11.47;;;5.73;;
3791;SDS011;1911;53.768;11.474;2022-12-07T05:24:53;7.13;;;3.77;;
3791;SDS011;1911;53.768;11.474;2022-12-07T05:27:19;5.05;;;2.90;;
3791;SDS011;1911;53.768;11.474;2022-12-07T05:29:45;12.83;;;6.77;;
3791;SDS011;1911;53.768;11.474;2022-12-07T05:32:10;5.23;;;3.40;;
3791;SDS011;1911;53.768;11.474;2022-12-07T05:34:36;10.40;;;6.10;;
3791;SDS011;1911;53.768;11.474;2022-12-07T05:37:01;6.27;;;4.00;;
3791;SDS011;1911;53.768;11.474;2022-12-07T05:39:27;12.87;;;6.47;;
3791;SDS011;1911;53.768;11.474;2022-12-07T05:41:52;9.30;;;3.93;;
3791;SDS011;1911;53.768;11.474;2022-12-07T05:44:36;7.47;;;3.90;;
3791;SDS011;1911;53.768;11.474;2022-12-07T05:47:02;10.13;;;5.33;;
3791;SDS011;1911;53.768;11.474;2022-12-07T05:49:28;6.07;;;2.83;;
3791;SDS011;1911;53.768;11.474;2022-12-07T05:51:54;11.60;;;5.50;;
3791;SDS011;1911;53.768;11.474;2022-12-07T05:54:19;5.93;;;3.63;;
3791;SDS011;1911;53.768;11.474;2022-12-07T05:56:45;6.73;;;3.70;;
3791;SDS011;1911;53.768;11.474;2022-12-07T05:59:10;5.63;;;2.73;;
3791;SDS011;1911;53.768;11.474;2022-12-07T06:01:51;4.43;;;2.63;;
3791;SDS011;1911;53.768;11.474;2022-12-07T06:04:17;3.85;;;2.90;;
3791;SDS011;1911;53.768;11.474;2022-12-07T06:06:44;5.60;;;3.20;;
3791;SDS011;1911;53.768;11.474;2022-12-07T06:09:10;4.50;;;2.50;;
3791;SDS011;1911;53.768;11.474;2022-12-07T06:11:37;2.00;;;1.00;;
3791;SDS011;1911;53.768;11.474;2022-12-07T06:14:21;3.45;;;1.75;;
3791;SDS011;1911;53.768;11.474;2022-12-07T06:16:47;4.27;;;2.03;;
3791;SDS011;1911;53.768;11.474;2022-12-07T06:19:12;3.93;;;1.70;;
3791;SDS011;1911;53.768;11.474;2022-12-07T06:21:38;8.17;;;3.37;;
3791;SDS011;1911;53.768;11.474;2022-12-07T06:24:03;5.77;;;2.30;;
3791;SDS011;1911;53.768;11.474;2022-12-07T06:26:29;2.93;;;2.00;;
3791;SDS011;1911;53.768;11.474;2022-12-07T06:28:55;2.40;;;1.40;;
3791;SDS011;1911;53.768;11.474;2022-12-07T06:31:20;1.63;;;0.93;;
3791;SDS011;1911;53.768;11.474;2022-12-07T06:33:46;2.83;;;1.70;;
3791;SDS011;1911;53.768;11.474;2022-12-07T06:36:12;2.17;;;1.80;;
3791;SDS011;1911;53.768;11.474;2022-12-07T06:38:37;4.10;;;2.17;;
3791;SDS011;1911;53.768;11.474;2022-12-07T06:41:03;5.77;;;3.10;;
3791;SDS011;1911;53.768;11.474;2022-12-07T06:43:29;8.50;;;4.40;;
3791;SDS011;1911;53.768;11.474;2022-12-07T06:45:54;12.90;;;5.90;;
3791;SDS011;1911;53.768;11.474;2022-12-07T06:48:20;10.60;;;5.43;;
3791;SDS011;1911;53.768;11.474;2022-12-07T06:50:46;11.37;;;6.27;;
3791;SDS011;1911;53.768;11.474;2022-12-07T06:53:12;11.23;;;5.43;;
3791;SDS011;1911;53.768;11.474;2022-12-07T06:55:38;6.90;;;4.20;;
3791;SDS011;1911;53.768;11.474;2022-12-07T06:58:04;18.90;;;8.23;;
3791;SDS011;1911;53.768;11.474;2022-12-07T07:00:29;11.90;;;6.43;;
3791;SDS011;1911;53.768;11.474;2022-12-07T07:02:55;11.73;;;5.87;;
3791;SDS011;1911;53.768;11.474;2022-12-07T07:05:21;12.73;;;6.30;;
3791;SDS011;1911;53.768;11.474;2022-12-07T07:07:47;8.10;;;4.63;;
3791;SDS011;1911;53.768;11.474;2022-12-07T07:10:15;10.57;;;6.97;;
3791;SDS011;1911;53.768;11.474;2022-12-07T07:12:40;10.40;;;5.60;;
3791;SDS011;1911;53.768;11.474;2022-12-07T07:15:06;13.67;;;6.70;;
3791;SDS011;1911;53.768;11.474;2022-12-07T07:17:32;10.50;;;5.93;;
3791;SDS011;1911;53.768;11.474;2022-12-07T07:19:57;10.27;;;6.27;;
3791;SDS011;1911;53.768;11.474;2022-12-07T07:22:23;12.80;;;6.80;;
3791;SDS011;1911;53.768;11.474;2022-12-07T07:24:48;5.90;;;3.13;;
3791;SDS011;1911;53.768;11.474;2022-12-07T07:27:14;12.67;;;6.00;;
3791;SDS011;1911;53.768;11.474;2022-12-07T07:29:40;7.63;;;5.00;;
3791;SDS011;1911;53.768;11.474;2022-12-07T07:32:05;10.17;;;4.77;;
3791;SDS011;1911;53.768;11.474;2022-12-07T07:34:32;10.30;;;5.60;;
3791;SDS011;1911;53.768;11.474;2022-12-07T07:36:58;11.33;;;6.90;;
3791;SDS011;1911;53.768;11.474;2022-12-07T07:39:23;14.80;;;7.30;;
3791;SDS011;1911;53.768;11.474;2022-12-07T07:41:49;13.30;;;6.87;;
3791;SDS011;1911;53.768;11.474;2022-12-07T07:44:14;14.77;;;7.70;;
3791;SDS011;1911;53.768;11.474;2022-12-07T07:46:40;13.60;;;7.70;;
3791;SDS011;1911;53.768;11.474;2022-12-07T07:49:05;13.20;;;7.43;;
3791;SDS011;1911;53.768;11.474;2022-12-07T07:51:31;10.77;;;7.70;;
3791;SDS011;1911;53.768;11.474;2022-12-07T07:53:57;15.73;;;7.90;;
3791;SDS011;1911;53.768;11.474;2022-12-07T07:56:22;9.13;;;4.50;;
3791;SDS011;1911;53.768;11.474;2022-12-07T07:58:51;11.17;;;6.63;;
3791;SDS011;1911;53.768;11.474;2022-12-07T08:01:17;5.63;;;3.65;;
3791;SDS011;1911;53.768;11.474;2022-12-07T08:03:44;13.98;;;7.15;;
3791;SDS011;1911;53.768;11.474;2022-12-07T08:06:11;19.13;;;5.93;;
3791;SDS011;1911;53.768;11.474;2022-12-07T08:08:36;9.53;;;4.97;;
3791;SDS011;1911;53.768;11.474;2022-12-07T08:11:04;11.47;;;6.27;;
3791;SDS011;1911;53.768;11.474;2022-12-07T08:13:31;14.15;;;6.90;;
3791;SDS011;1911;53.768;11.474;2022-12-07T08:15:56;11.03;;;6.13;;
3791;SDS011;1911;53.768;11.474;2022-12-07T08:18:22;6.20;;;3.57;;
3791;SDS011;1911;53.768;11.474;2022-12-07T08:20:47;9.10;;;5.33;;
3791;SDS011;1911;53.768;11.474;2022-12-07T08:23:13;12.10;;;6.70;;
3791;SDS011;1911;53.768;11.474;2022-12-07T08:25:38;13.13;;;6.43;;
3791;SDS011;1911;53.768;11.474;2022-12-07T08:28:04;13.23;;;7.03;;
3791;SDS011;1911;53.768;11.474;2022-12-07T08:30:30;11.43;;;6.32;;
3791;SDS011;1911;53.768;11.474;2022-12-07T08:32:56;7.43;;;3.80;;
3791;SDS011;1911;53.768;11.474;2022-12-07T08:35:22;6.07;;;4.00;;
3791;SDS011;1911;53.768;11.474;2022-12-07T08:37:48;10.50;;;5.47;;
3791;SDS011;1911;53.768;11.474;2022-12-07T08:40:13;14.70;;;8.53;;
3791;SDS011;1911;53.768;11.474;2022-12-07T08:42:43;13.02;;;6.68;;
3791;SDS011;1911;53.768;11.474;2022-12-07T08:45:14;8.65;;;4.75;;
3791;SDS011;1911;53.768;11.474;2022-12-07T08:47:42;6.70;;;4.03;;
3791;SDS011;1911;53.768;11.474;2022-12-07T08:50:17;10.23;;;5.28;;
3791;SDS011;1911;53.768;11.474;2022-12-07T08:52:43;8.10;;;4.90;;
3791;SDS011;1911;53.768;11.474;2022-12-07T08:55:09;15.50;;;6.57;;
3791;SDS011;1911;53.768;11.474;2022-12-07T08:57:36;9.43;;;5.15;;
3791;SDS011;1911;53.768;11.474;2022-12-07T09:00:03;9.65;;;5.15;;
3791;SDS011;1911;53.768;11.474;2022-12-07T09:02:30;8.10;;;5.10;;
3791;SDS011;1911;53.768;11.474;2022-12-07T09:04:56;8.30;;;4.22;;
3791;SDS011;1911;53.768;11.474;2022-12-07T09:07:22;11.80;;;5.70;;
3791;SDS011;1911;53.768;11.474;2022-12-07T09:09:48;13.88;;;5.53;;
3791;SDS011;1911;53.768;11.474;2022-12-07T09:12:13;9.30;;;5.30;;
3791;SDS011;1911;53.768;11.474;2022-12-07T09:14:39;8.87;;;5.53;;
3791;SDS011;1911;53.768;11.474;2022-12-07T09:17:05;10.37;;;5.43;;
3791;SDS011;1911;53.768;11.474;2022-12-07T09:19:32;12.23;;;5.10;;
3791;SDS011;1911;53.768;11.474;2022-12-07T09:21:57;10.83;;;5.40;;
3791;SDS011;1911;53.768;11.474;2022-12-07T09:24:23;8.17;;;4.53;;
3791;SDS011;1911;53.768;11.474;2022-12-07T09:26:48;10.83;;;4.60;;
3791;SDS011;1911;53.768;11.474;2022-12-07T09:29:14;9.40;;;4.43;;
3791;SDS011;1911;53.768;11.474;2022-12-07T09:31:39;9.40;;;4.27;;
3791;SDS011;1911;53.768;11.474;2022-12-07T09:34:05;9.60;;;5.40;;
3791;SDS011;1911;53.768;11.474;2022-12-07T09:36:32;11.48;;;5.10;;
3791;SDS011;1911;53.768;11.474;2022-12-07T09:38:58;6.60;;;3.90;;
3791;SDS011;1911;53.768;11.474;2022-12-07T09:41:24;7.47;;;3.63;;
3791;SDS011;1911;53.768;11.474;2022-12-07T09:43:52;7.90;;;3.72;;
3791;SDS011;1911;53.768;11.474;2022-12-07T09:46:23;11.05;;;4.70;;
3791;SDS011;1911;53.768;11.474;2022-12-07T09:48:48;6.37;;;4.57;;
3791;SDS011;1911;53.768;11.474;2022-12-07T09:51:19;7.43;;;4.70;;
3791;SDS011;1911;53.768;11.474;2022-12-07T09:53:47;9.27;;;5.10;;
3791;SDS011;1911;53.768;11.474;2022-12-07T09:56:14;5.40;;;2.92;;
3791;SDS011;1911;53.768;11.474;2022-12-07T09:58:42;10.40;;;4.80;;
3791;SDS011;1911;53.768;11.474;2022-12-07T10:03:37;8.33;;;4.10;;
3791;SDS011;1911;53.768;11.474;2022-12-07T10:06:05;7.93;;;4.05;;
3791;SDS011;1911;53.768;11.474;2022-12-07T10:08:31;6.80;;;4.03;;
3791;SDS011;1911;53.768;11.474;2022-12-07T10:10:57;7.65;;;3.20;;
3791;SDS011;1911;53.768;11.474;2022-12-07T10:18:50;7.00;;;3.20;;
3791;SDS011;1911;53.768;11.474;2022-12-07T10:21:17;7.57;;;3.58;;
3791;SDS011;1911;53.768;11.474;2022-12-07T10:24:04;5.57;;;3.30;;
3791;SDS011;1911;53.768;11.474;2022-12-07T10:29:17;6.80;;;3.63;;
3791;SDS011;1911;53.768;11.474;2022-12-07T10:31:50;6.13;;;3.42;;
3791;SDS011;1911;53.768;11.474;2022-12-07T10:34:40;7.13;;;3.22;;
3791;SDS011;1911;53.768;11.474;2022-12-07T10:37:11;4.77;;;2.67;;
3791;SDS011;1911;53.768;11.474;2022-12-07T10:42:25;2.97;;;1.60;;
3791;SDS011;1911;53.768;11.474;2022-12-07T10:47:59;3.93;;;1.40;;
3791;SDS011;1911;53.768;11.474;2022-12-07T10:50:47;6.35;;;1.98;;
3791;SDS011;1911;53.768;11.474;2022-12-07T11:07:14;5.07;;;1.70;;
3791;SDS011;1911;53.768;11.474;2022-12-07T11:09:49;3.53;;;1.95;;
3791;SDS011;1911;53.768;11.474;2022-12-07T11:13:13;3.60;;;1.70;;
3791;SDS011;1911;53.768;11.474;2022-12-07T11:18:14;6.97;;;1.50;;
3791;SDS011;1911;53.768;11.474;2022-12-07T11:21:03;8.20;;;1.70;;
3791;SDS011;1911;53.768;11.474;2022-12-07T11:23:44;2.53;;;1.38;;
3791;SDS011;1911;53.768;11.474;2022-12-07T11:26:21;2.07;;;1.37;;
3791;SDS011;1911;53.768;11.474;2022-12-07T11:37:49;6.80;;;1.08;;
3791;SDS011;1911;53.768;11.474;2022-12-07T11:45:44;4.10;;;1.17;;
3791;SDS011;1911;53.768;11.474;2022-12-07T11:48:21;4.18;;;1.15;;
3791;SDS011;1911;53.768;11.474;2022-12-07T11:51:00;2.90;;;0.77;;
3791;SDS011;1911;53.768;11.474;2022-12-07T11:53:29;1.20;;;0.83;;
3791;SDS011;1911;53.768;11.474;2022-12-07T12:01:35;1.90;;;1.13;;
3791;SDS011;1911;53.768;11.474;2022-12-07T12:06:43;2.40;;;0.90;;
3791;SDS011;1911;53.768;11.474;2022-12-07T12:20:15;2.97;;;1.00;;
3791;SDS011;1911;53.768;11.474;2022-12-07T12:22:49;3.88;;;1.30;;
3791;SDS011;1911;53.768;11.474;2022-12-07T12:25:29;2.73;;;0.80;;
3791;SDS011;1911;53.768;11.474;2022-12-07T12:28:01;4.97;;;1.03;;
3791;SDS011;1911;53.768;11.474;2022-12-07T12:36:44;1.10;;;0.60;;
3791;SDS011;1911;53.768;11.474;2022-12-07T12:38:52;1.42;;;0.95;;
3791;SDS011;1911;53.768;11.474;2022-12-07T12:46:45;2.08;;;0.50;;
3791;SDS011;1911;53.768;11.474;2022-12-07T12:51:48;1.38;;;0.77;;
3791;SDS011;1911;53.768;11.474;2022-12-07T12:54:15;1.00;;;0.47;;
3791;SDS011;1911;53.768;11.474;2022-12-07T12:56:59;1.87;;;0.90;;
3791;SDS011;1911;53.768;11.474;2022-12-07T13:10:20;1.07;;;0.60;;
3791;SDS011;1911;53.768;11.474;2022-12-07T13:34:03;2.95;;;0.82;;
3791;SDS011;1911;53.768;11.474;2022-12-07T13:36:36;2.63;;;0.77;;
3791;SDS011;1911;53.768;11.474;2022-12-07T13:39:19;2.72;;;1.00;;
3791;SDS011;1911;53.768;11.474;2022-12-07T13:41:54;1.00;;;0.52;;
3791;SDS011;1911;53.768;11.474;2022-12-07T13:44:26;1.42;;;0.80;;
3791;SDS011;1911;53.768;11.474;2022-12-07T13:47:05;1.42;;;0.70;;
3791;SDS011;1911;53.768;11.474;2022-12-07T13:49:38;1.30;;;0.70;;
3791;SDS011;1911;53.768;11.474;2022-12-07T13:52:15;4.85;;;1.00;;
3791;SDS011;1911;53.768;11.474;2022-12-07T13:54:54;5.13;;;0.75;;
3791;SDS011;1911;53.768;11.474;2022-12-07T13:57:25;2.33;;;1.30;;
3791;SDS011;1911;53.768;11.474;2022-12-07T13:59:52;2.60;;;1.30;;
3791;SDS011;1911;53.768;11.474;2022-12-07T14:04:50;2.30;;;0.80;;
3791;SDS011;1911;53.768;11.474;2022-12-07T14:07:26;3.38;;;1.98;;
3791;SDS011;1911;53.768;11.474;2022-12-07T14:09:57;1.90;;;1.10;;
3791;SDS011;1911;53.768;11.474;2022-12-07T14:12:25;4.30;;;1.48;;
3791;SDS011;1911;53.768;11.474;2022-12-07T14:14:53;1.30;;;0.68;;
3791;SDS011;1911;53.768;11.474;2022-12-07T14:17:21;2.20;;;1.10;;
3791;SDS011;1911;53.768;11.474;2022-12-07T14:27:49;5.32;;;1.40;;
3791;SDS011;1911;53.768;11.474;2022-12-07T14:30:24;1.10;;;0.80;;
3791;SDS011;1911;53.768;11.474;2022-12-07T14:32:53;3.15;;;1.10;;
3791;SDS011;1911;53.768;11.474;2022-12-07T14:35:25;1.20;;;0.85;;
3791;SDS011;1911;53.768;11.474;2022-12-07T14:37:51;1.75;;;0.90;;
3791;SDS011;1911;53.768;11.474;2022-12-07T14:40:21;2.20;;;1.13;;
3791;SDS011;1911;53.768;11.474;2022-12-07T14:43:00;3.97;;;1.38;;
3791;SDS011;1911;53.768;11.474;2022-12-07T14:45:27;6.43;;;1.95;;
3791;SDS011;1911;53.768;11.474;2022-12-07T14:47:53;1.70;;;1.13;;
3791;SDS011;1911;53.768;11.474;2022-12-07T14:50:19;2.80;;;1.00;;
3791;SDS011;1911;53.768;11.474;2022-12-07T14:52:47;3.65;;;1.05;;
3791;SDS011;1911;53.768;11.474;2022-12-07T14:57:50;2.30;;;0.88;;
3791;SDS011;1911;53.768;11.474;2022-12-07T15:00:16;2.80;;;1.00;;
3791;SDS011;1911;53.768;11.474;2022-12-07T15:02:44;1.40;;;0.75;;
3791;SDS011;1911;53.768;11.474;2022-12-07T15:05:10;1.73;;;0.70;;
3791;SDS011;1911;53.768;11.474;2022-12-07T15:07:36;0.90;;;0.50;;
3791;SDS011;1911;53.768;11.474;2022-12-07T15:10:02;1.07;;;0.70;;
3791;SDS011;1911;53.768;11.474;2022-12-07T15:12:28;5.55;;;0.93;;
3791;SDS011;1911;53.768;11.474;2022-12-07T15:14:54;2.03;;;1.07;;
3791;SDS011;1911;53.768;11.474;2022-12-07T15:17:19;2.67;;;0.70;;
3791;SDS011;1911;53.768;11.474;2022-12-07T15:19:45;1.63;;;0.90;;
3791;SDS011;1911;53.768;11.474;2022-12-07T15:22:13;1.95;;;1.48;;
3791;SDS011;1911;53.768;11.474;2022-12-07T15:24:39;1.43;;;0.90;;
3791;SDS011;1911;53.768;11.474;2022-12-07T15:27:04;1.17;;;0.87;;
3791;SDS011;1911;53.768;11.474;2022-12-07T15:29:30;2.53;;;1.07;;
3791;SDS011;1911;53.768;11.474;2022-12-07T15:31:56;4.43;;;1.90;;
3791;SDS011;1911;53.768;11.474;2022-12-07T15:34:22;1.60;;;0.90;;
3791;SDS011;1911;53.768;11.474;2022-12-07T15:36:53;4.80;;;1.70;;
3791;SDS011;1911;53.768;11.474;2022-12-07T15:39:19;2.63;;;2.17;;
3791;SDS011;1911;53.768;11.474;2022-12-07T15:41:44;4.10;;;1.10;;
3791;SDS011;1911;53.768;11.474;2022-12-07T15:44:11;2.17;;;0.77;;
3791;SDS011;1911;53.768;11.474;2022-12-07T15:46:58;1.20;;;0.60;;
3791;SDS011;1911;53.768;11.474;2022-12-07T15:49:24;5.10;;;1.70;;
3791;SDS011;1911;53.768;11.474;2022-12-07T15:51:50;3.00;;;0.80;;
3791;SDS011;1911;53.768;11.474;2022-12-07T15:54:18;2.50;;;0.80;;
3791;SDS011;1911;53.768;11.474;2022-12-07T15:56:44;2.45;;;1.48;;
3791;SDS011;1911;53.768;11.474;2022-12-07T15:59:10;5.00;;;1.30;;
3791;SDS011;1911;53.768;11.474;2022-12-07T16:01:35;1.60;;;0.70;;
3791;SDS011;1911;53.768;11.474;2022-12-07T16:04:01;4.67;;;1.83;;
3791;SDS011;1911;53.768;11.474;2022-12-07T16:06:26;7.30;;;1.83;;
3791;SDS011;1911;53.768;11.474;2022-12-07T16:08:52;10.40;;;1.17;;
3791;SDS011;1911;53.768;11.474;2022-12-07T16:11:17;4.20;;;1.37;;
3791;SDS011;1911;53.768;11.474;2022-12-07T16:13:43;2.33;;;1.30;;
3791;SDS011;1911;53.768;11.474;2022-12-07T16:16:13;2.23;;;1.23;;
3791;SDS011;1911;53.768;11.474;2022-12-07T16:18:39;4.43;;;1.92;;
3791;SDS011;1911;53.768;11.474;2022-12-07T16:21:06;1.30;;;0.80;;
3791;SDS011;1911;53.768;11.474;2022-12-07T16:23:32;2.10;;;1.10;;
3791;SDS011;1911;53.768;11.474;2022-12-07T16:26:03;3.83;;;2.20;;
3791;SDS011;1911;53.768;11.474;2022-12-07T16:28:33;4.45;;;1.42;;
3791;SDS011;1911;53.768;11.474;2022-12-07T16:31:06;3.30;;;1.00;;
3791;SDS011;1911;53.768;11.474;2022-12-07T16:33:36;7.43;;;1.23;;
3791;SDS011;1911;53.768;11.474;2022-12-07T16:36:04;1.23;;;0.75;;
3791;SDS011;1911;53.768;11.474;2022-12-07T16:38:31;2.13;;;1.35;;
3791;SDS011;1911;53.768;11.474;2022-12-07T16:40:57;2.03;;;1.07;;
3791;SDS011;1911;53.768;11.474;2022-12-07T16:43:23;2.53;;;1.00;;
3791;SDS011;1911;53.768;11.474;2022-12-07T16:45:49;2.63;;;1.13;;
3791;SDS011;1911;53.768;11.474;2022-12-07T16:48:15;14.20;;;5.55;;
3791;SDS011;1911;53.768;11.474;2022-12-07T16:50:42;5.05;;;3.05;;
3791;SDS011;1911;53.768;11.474;2022-12-07T16:53:08;5.93;;;3.20;;
3791;SDS011;1911;53.768;11.474;2022-12-07T16:55:37;10.35;;;4.22;;
3791;SDS011;1911;53.768;11.474;2022-12-07T16:58:07;4.13;;;3.22;;
3791;SDS011;1911;53.768;11.474;2022-12-07T17:00:33;6.82;;;3.40;;
3791;SDS011;1911;53.768;11.474;2022-12-07T17:03:02;5.50;;;4.17;;
3791;SDS011;1911;53.768;11.474;2022-12-07T17:05:28;4.65;;;1.20;;
3791;SDS011;1911;53.768;11.474;2022-12-07T17:07:54;3.63;;;1.20;;
3791;SDS011;1911;53.768;11.474;2022-12-07T17:10:21;4.75;;;2.13;;
3791;SDS011;1911;53.768;11.474;2022-12-07T17:12:47;29.87;;;10.10;;
3791;SDS011;1911;53.768;11.474;2022-12-07T17:15:13;39.15;;;15.50;;
3791;SDS011;1911;53.768;11.474;2022-12-07T17:17:42;17.15;;;8.23;;
3791;SDS011;1911;53.768;11.474;2022-12-07T17:20:26;55.45;;;16.85;;
3791;SDS011;1911;53.768;11.474;2022-12-07T17:22:52;44.08;;;18.52;;
3791;SDS011;1911;53.768;11.474;2022-12-07T17:25:18;9.40;;;3.93;;
3791;SDS011;1911;53.768;11.474;2022-12-07T17:27:44;23.23;;;8.27;;
3791;SDS011;1911;53.768;11.474;2022-12-07T17:30:11;16.58;;;5.95;;
3791;SDS011;1911;53.768;11.474;2022-12-07T17:32:38;14.05;;;6.57;;
3791;SDS011;1911;53.768;11.474;2022-12-07T17:35:04;18.23;;;8.60;;
3791;SDS011;1911;53.768;11.474;2022-12-07T17:37:31;30.00;;;12.25;;
3791;SDS011;1911;53.768;11.474;2022-12-07T17:39:57;33.95;;;15.85;;